Time;durP1;ratioP1;P1;durP2;ratioP2;P2;SDS_P1;SDS_P2;PMS_P1;PMS_P2;Temp;Humidity;BMP_temperature;BMP_pressure;BME280_temperature;BME280_humidity;BME280_pressure;Samples;Min_cycle;Max_cycle;Signal;HPM_P1;HPM_P2
2022/08/26 02:46:02;;;;;;;7.30;2.50;;;18.10;99.90;;;;;;5827545;23;94300;31
2022/08/26 02:48:28;;;;;;;6.93;2.63;;;17.90;99.90;;;;;;4803559;29;91628;-69
2022/08/26 02:50:54;;;;;;;5.90;3.13;;;17.90;99.90;;;;;;4802105;29;92603;-68
2022/08/26 02:53:20;;;;;;;5.93;2.55;;;17.90;99.90;;;;;;4801392;29;91461;-70
2022/08/26 02:55:48;;;;;;;7.05;2.53;;;17.90;99.90;;;;;;4800970;29;92853;-71
2022/08/26 02:58:15;;;;;;;5.05;2.95;;;17.90;99.90;;;;;;4801454;29;92341;-69
2022/08/26 03:00:41;;;;;;;5.68;2.90;;;17.90;99.90;;;;;;4801200;29;91418;-71
2022/08/26 03:03:07;;;;;;;12.18;2.90;;;17.90;99.90;;;;;;4804712;29;91311;-71
2022/08/26 03:05:33;;;;;;;6.28;3.05;;;18.00;99.90;;;;;;4805702;29;91816;-70
2022/08/26 03:08:00;;;;;;;4.68;2.60;;;17.90;99.90;;;;;;4801631;29;93472;-71
2022/08/26 03:10:26;;;;;;;7.47;2.78;;;18.00;99.90;;;;;;4801322;29;92213;-71
2022/08/26 03:12:52;;;;;;;4.53;2.55;;;18.00;99.90;;;;;;4801807;29;91585;-70
2022/08/26 03:15:18;;;;;;;5.10;3.20;;;17.90;99.90;;;;;;4800363;29;92832;-70
2022/08/26 03:17:46;;;;;;;6.25;2.80;;;18.00;99.90;;;;;;4800891;29;92562;-70
2022/08/26 03:20:12;;;;;;;4.90;2.53;;;17.90;99.90;;;;;;4803037;29;91455;-71
2022/08/26 03:22:39;;;;;;;7.13;3.17;;;17.90;99.90;;;;;;4801814;29;91961;-71
2022/08/26 03:25:09;;;;;;;3.95;2.45;;;17.90;99.90;;;;;;4801627;29;92276;-72
2022/08/26 03:27:36;;;;;;;4.95;2.97;;;17.80;99.90;;;;;;4803228;29;92045;-71
2022/08/26 03:32:47;;;;;;;5.97;3.40;;;17.80;99.90;;;;;;4802368;29;91294;-71
2022/08/26 03:35:13;;;;;;;6.38;3.10;;;17.90;99.90;;;;;;4799826;29;92384;-71
2022/08/26 03:37:39;;;;;;;8.57;3.10;;;17.80;99.90;;;;;;4800229;29;92314;-71
2022/08/26 03:40:07;;;;;;;5.47;3.10;;;17.70;99.90;;;;;;4801677;29;92525;-71
2022/08/26 03:42:35;;;;;;;5.13;2.88;;;17.60;99.90;;;;;;4797461;29;91789;-71
2022/08/26 03:45:01;;;;;;;5.93;2.97;;;17.70;99.90;;;;;;4801075;29;92297;-71
2022/08/26 03:47:29;;;;;;;5.40;2.85;;;17.70;99.90;;;;;;4810149;29;91783;-71
2022/08/26 03:49:58;;;;;;;7.45;3.25;;;17.70;99.90;;;;;;4819854;29;91698;-71
2022/08/26 03:52:23;;;;;;;4.45;2.65;;;17.80;99.90;;;;;;4820378;29;91811;-70
2022/08/26 03:54:49;;;;;;;6.30;3.80;;;17.70;99.90;;;;;;4818135;29;92241;-70
2022/08/26 03:57:15;;;;;;;4.85;2.90;;;17.70;99.90;;;;;;4819852;29;91187;-70
2022/08/26 03:59:41;;;;;;;6.95;3.67;;;17.50;99.90;;;;;;4820721;29;92000;-70
2022/08/26 04:02:07;;;;;;;5.97;2.65;;;17.50;99.90;;;;;;4818690;29;91918;-70
2022/08/26 04:04:34;;;;;;;5.28;2.63;;;17.40;99.90;;;;;;4817735;29;93501;-70
2022/08/26 04:07:00;;;;;;;4.75;3.05;;;17.40;99.90;;;;;;4822061;29;92177;-74
2022/08/26 04:09:26;;;;;;;5.70;3.13;;;17.40;99.90;;;;;;4825421;29;91309;-78
2022/08/26 04:11:53;;;;;;;4.45;2.85;;;17.30;99.90;;;;;;4825334;29;91687;-73
2022/08/26 04:14:22;;;;;;;7.05;3.22;;;17.30;99.90;;;;;;4826311;29;91701;-74
2022/08/26 04:16:49;;;;;;;5.25;2.97;;;17.20;99.90;;;;;;4826895;29;92124;-73
2022/08/26 04:19:16;;;;;;;5.20;3.03;;;17.20;99.90;;;;;;4819650;29;91810;-76
2022/08/26 04:21:42;;;;;;;6.22;3.08;;;17.20;99.90;;;;;;4815672;29;90901;-73
2022/08/26 04:24:10;;;;;;;4.50;2.45;;;17.30;99.90;;;;;;4824422;29;92203;-74
2022/08/26 04:26:36;;;;;;;6.00;3.03;;;17.20;99.90;;;;;;4824318;29;91573;-73
2022/08/26 04:29:08;;;;;;;6.93;2.78;;;17.30;99.90;;;;;;4826199;29;93051;-74
2022/08/26 04:31:35;;;;;;;4.85;2.60;;;17.20;99.90;;;;;;4827448;29;91277;-73
2022/08/26 04:34:02;;;;;;;6.60;2.83;;;17.30;99.90;;;;;;4820872;29;92165;-77
2022/08/26 04:36:28;;;;;;;7.38;2.42;;;17.20;99.90;;;;;;4826460;29;92602;-73
2022/08/26 04:38:54;;;;;;;4.10;2.58;;;17.20;99.90;;;;;;4822916;29;91996;-73
2022/08/26 04:41:20;;;;;;;5.25;3.28;;;17.20;99.90;;;;;;4824648;29;91942;-74
2022/08/26 04:43:47;;;;;;;6.20;2.97;;;17.10;99.90;;;;;;4825467;29;92304;-74
2022/08/26 04:46:18;;;;;;;5.13;2.58;;;17.20;99.90;;;;;;4825837;29;92221;-79
2022/08/26 04:48:44;;;;;;;9.55;2.78;;;17.30;99.90;;;;;;4826263;29;91853;-76
2022/08/26 04:51:09;;;;;;;4.78;2.65;;;17.30;99.90;;;;;;4826170;29;91558;-77
2022/08/26 04:53:36;;;;;;;7.00;3.13;;;17.50;99.90;;;;;;4824694;29;92714;-74
2022/08/26 04:56:02;;;;;;;6.40;3.00;;;17.50;99.90;;;;;;4826324;29;92978;-76
2022/08/26 04:58:28;;;;;;;8.15;3.55;;;18.00;99.90;;;;;;4826054;29;92003;-75
2022/08/26 05:00:55;;;;;;;6.80;2.95;;;18.30;99.90;;;;;;4827275;29;91463;-74
2022/08/26 05:03:22;;;;;;;4.20;2.67;;;18.60;99.90;;;;;;4824492;29;91500;-76
2022/08/26 05:05:49;;;;;;;8.63;2.63;;;18.70;99.90;;;;;;4825273;29;92102;-73
2022/08/26 05:08:16;;;;;;;6.75;3.20;;;18.60;99.90;;;;;;4822359;29;91350;-74
2022/08/26 05:10:49;;;;;;;8.38;3.25;;;18.50;99.90;;;;;;4825844;29;91601;-74
2022/08/26 05:13:17;;;;;;;7.03;3.47;;;18.20;99.90;;;;;;4828860;29;91747;-74
2022/08/26 05:15:44;;;;;;;10.55;3.25;;;18.10;99.90;;;;;;4829120;29;91813;-73
2022/08/26 05:18:10;;;;;;;5.93;3.47;;;17.90;99.90;;;;;;4824409;29;93059;-74
2022/08/26 05:20:42;;;;;;;7.32;3.30;;;17.90;99.90;;;;;;4826888;29;91309;-74
2022/08/26 05:23:08;;;;;;;8.02;3.47;;;17.80;99.90;;;;;;4824337;29;91686;-74
2022/08/26 05:25:42;;;;;;;9.65;4.03;;;17.70;99.90;;;;;;4832760;29;91369;-74
2022/08/26 05:28:11;;;;;;;8.63;3.88;;;17.50;99.90;;;;;;4831024;29;91383;-75
2022/08/26 05:30:38;;;;;;;17.33;4.20;;;18.20;99.90;;;;;;4829639;29;92284;-73
2022/08/26 05:33:05;;;;;;;15.20;4.10;;;19.60;99.90;;;;;;4826548;29;91805;-75
2022/08/26 05:35:32;;;;;;;11.88;3.53;;;20.90;95.00;;;;;;4824869;29;91290;-74
2022/08/26 05:38:03;;;;;;;8.70;3.03;;;21.90;92.70;;;;;;4832475;29;91933;-73
2022/08/26 05:40:34;;;;;;;5.30;2.53;;;23.30;88.40;;;;;;4825177;29;91304;-75
2022/08/26 05:42:59;;;;;;;5.88;2.50;;;24.50;82.10;;;;;;4830696;29;92578;-73
2022/08/26 05:45:26;;;;;;;8.43;2.90;;;25.10;78.70;;;;;;4821501;29;92990;-74
2022/08/26 05:47:52;;;;;;;8.02;3.13;;;25.50;73.80;;;;;;4824566;29;91348;-77
2022/08/26 05:50:22;;;;;;;11.02;3.28;;;26.00;71.50;;;;;;4831183;29;91422;-76
2022/08/26 05:52:48;;;;;;;8.00;2.80;;;26.70;68.10;;;;;;4823654;29;92616;-74
2022/08/26 05:55:15;;;;;;;5.50;2.78;;;27.50;66.20;;;;;;4823486;29;91982;-75
2022/08/26 05:57:40;;;;;;;5.78;2.92;;;28.10;66.40;;;;;;4823484;29;91807;-76
2022/08/26 06:00:07;;;;;;;9.10;2.75;;;28.80;63.30;;;;;;4823134;29;91570;-76
2022/08/26 06:02:32;;;;;;;8.18;3.63;;;28.80;61.90;;;;;;4822938;29;92164;-74
2022/08/26 06:04:58;;;;;;;6.55;3.13;;;28.60;60.60;;;;;;4822527;29;92271;-74
2022/08/26 06:08:09;;;;;;;12.32;3.67;;;28.10;61.50;;;;;;4820652;29;92492;-74
2022/08/26 06:10:13;;;;;;;5.97;3.40;;;28.40;61.90;;;;;;4822158;29;92285;-77
2022/08/26 06:12:38;;;;;;;7.72;3.47;;;29.20;60.20;;;;;;4821862;29;91565;-75
2022/08/26 06:15:05;;;;;;;7.47;3.42;;;30.40;58.00;;;;;;4827477;29;92683;-78
2022/08/26 06:17:31;;;;;;;7.18;3.95;;;30.50;56.10;;;;;;4822673;29;92091;-76
2022/08/26 06:19:57;;;;;;;9.15;2.40;;;29.80;57.20;;;;;;4822635;29;91714;-74
2022/08/26 06:27:52;;;;;;;6.00;3.05;;;34.20;49.90;;;;;;4823005;29;91965;-74
2022/08/26 06:30:18;;;;;;;6.82;3.15;;;34.80;47.70;;;;;;4821625;29;91310;-73
2022/08/26 06:32:44;;;;;;;3.53;2.15;;;34.50;49.90;;;;;;4821122;29;93377;-74
2022/08/26 06:35:10;;;;;;;4.00;2.85;;;34.70;48.10;;;;;;4829605;29;92100;-74
2022/08/26 06:37:36;;;;;;;6.25;3.20;;;34.00;50.30;;;;;;4822180;29;91965;-75
2022/08/26 06:40:03;;;;;;;4.65;3.88;;;33.90;50.40;;;;;;4822955;29;91678;-76
2022/08/26 06:42:29;;;;;;;5.18;3.72;;;34.40;50.60;;;;;;4820582;29;92386;-74
2022/08/26 06:44:55;;;;;;;7.88;3.25;;;35.00;48.40;;;;;;4821765;29;91978;-74
2022/08/26 06:47:21;;;;;;;3.92;3.05;;;33.50;50.00;;;;;;4822118;29;91875;-73
2022/08/26 06:49:47;;;;;;;3.30;2.83;;;32.00;52.80;;;;;;4822670;29;90942;-74
2022/08/26 06:52:12;;;;;;;6.25;2.70;;;30.90;55.40;;;;;;4823985;29;92787;-76
2022/08/26 06:54:41;;;;;;;5.38;3.13;;;30.40;57.30;;;;;;4822135;29;92349;-77
2022/08/26 06:57:08;;;;;;;6.78;3.13;;;31.90;57.30;;;;;;4821778;29;93368;-75
2022/08/26 06:59:34;;;;;;;5.32;3.38;;;34.20;52.30;;;;;;4822153;29;92088;-73
2022/08/26 07:01:59;;;;;;;6.47;3.15;;;35.90;49.40;;;;;;4820597;29;92165;-76
2022/08/26 07:04:26;;;;;;;6.38;3.40;;;36.60;48.60;;;;;;4821137;29;92933;-76
2022/08/26 07:06:52;;;;;;;5.65;4.07;;;37.60;46.10;;;;;;4822034;29;91642;-75
2022/08/26 07:09:18;;;;;;;6.78;3.45;;;38.70;44.00;;;;;;4821978;29;92111;-73
2022/08/26 07:11:44;;;;;;;28.10;4.63;;;38.00;41.90;;;;;;4824265;29;91590;-74
2022/08/26 07:14:11;;;;;;;6.18;3.45;;;37.50;42.00;;;;;;4820361;29;91981;-75
2022/08/26 07:16:39;;;;;;;57.50;4.28;;;38.10;41.80;;;;;;4820350;29;91802;-73
2022/08/26 07:19:05;;;;;;;11.40;3.65;;;37.10;42.70;;;;;;4820621;29;91680;-74
2022/08/26 07:21:31;;;;;;;6.07;3.28;;;36.80;42.70;;;;;;4820741;29;92762;-74
2022/08/26 07:23:57;;;;;;;8.60;4.22;;;37.90;40.70;;;;;;4819770;29;92898;-74
2022/08/26 07:26:26;;;;;;;7.10;3.42;;;38.80;40.60;;;;;;4824977;29;92315;-73
2022/08/26 07:28:54;;;;;;;4.70;4.18;;;40.30;38.30;;;;;;4821247;29;91962;-72
2022/08/26 07:31:21;;;;;;;;;;;41.40;39.00;;;;;;4821650;29;91815;-71
2022/08/26 07:33:47;;;;;;;6.47;4.03;;;42.50;37.30;;;;;;4821995;29;91773;-73
2022/08/26 07:36:15;;;;;;;4.75;3.97;;;43.20;36.20;;;;;;4819593;29;93050;-73
2022/08/26 07:38:43;;;;;;;5.28;4.22;;;43.40;37.40;;;;;;4816963;29;90531;-74
2022/08/26 07:41:09;;;;;;;5.57;5.05;;;43.30;37.40;;;;;;4821348;29;91662;-73
2022/08/26 07:43:36;;;;;;;5.45;4.85;;;42.80;38.00;;;;;;4824080;29;92017;-71
2022/08/26 07:46:03;;;;;;;5.55;5.00;;;43.00;38.20;;;;;;4823474;29;92363;-72
2022/08/26 07:48:28;;;;;;;6.35;4.57;;;43.70;37.70;;;;;;4819159;29;91996;-73
2022/08/26 07:50:54;;;;;;;7.97;5.50;;;43.20;37.60;;;;;;4821664;29;92265;-73
2022/08/26 07:53:21;;;;;;;7.18;6.47;;;43.40;37.40;;;;;;4824162;29;92376;-73
2022/08/26 07:55:48;;;;;;;5.85;4.60;;;43.70;36.80;;;;;;4824115;29;91369;-73
2022/08/26 07:58:14;;;;;;;5.15;4.47;;;44.70;35.40;;;;;;4825728;29;91945;-75
2022/08/26 08:00:40;;;;;;;5.22;4.63;;;44.40;37.40;;;;;;4826784;29;93792;-72
2022/08/26 08:03:06;;;;;;;7.20;5.50;;;45.00;35.60;;;;;;4824338;29;91439;-72
2022/08/26 08:05:33;;;;;;;5.97;4.70;;;45.60;35.50;;;;;;4824264;29;91569;-72
2022/08/26 08:08:00;;;;;;;5.65;4.63;;;46.00;35.60;;;;;;4824147;29;91565;-74
2022/08/26 08:10:27;;;;;;;8.50;6.20;;;46.00;34.80;;;;;;4821604;29;92522;-71
2022/08/26 08:12:53;;;;;;;6.63;5.97;;;45.50;34.90;;;;;;4823835;29;93329;-72
2022/08/26 08:15:23;;;;;;;7.43;5.80;;;45.00;35.50;;;;;;4823976;29;91330;-72
2022/08/26 08:17:49;;;;;;;5.43;4.82;;;43.80;37.00;;;;;;4824468;29;92404;-72
2022/08/26 08:20:15;;;;;;;5.70;5.20;;;43.90;37.70;;;;;;4823871;29;92046;-73
2022/08/26 08:22:41;;;;;;;7.05;5.05;;;44.60;36.80;;;;;;4823260;29;92285;-72
2022/08/26 08:25:08;;;;;;;6.20;5.57;;;45.50;35.50;;;;;;4824722;29;91686;-73
2022/08/26 08:27:35;;;;;;;4.75;4.30;;;46.60;34.90;;;;;;4820661;29;91233;-73
2022/08/26 08:30:01;;;;;;;;;;;44.00;36.50;;;;;;4820028;29;92283;-75
2022/08/26 08:32:28;;;;;;;6.22;4.43;;;39.90;40.00;;;;;;4825688;29;91779;-72
2022/08/26 08:34:54;;;;;;;5.95;4.60;;;38.80;42.80;;;;;;4822873;29;92477;-72
2022/08/26 08:37:21;;;;;;;5.68;5.03;;;41.20;40.10;;;;;;4822761;29;91845;-73
2022/08/26 08:39:46;;;;;;;6.45;4.38;;;44.00;37.70;;;;;;4823191;29;92937;-73
2022/08/26 08:42:50;;;;;;;5.85;5.22;;;44.70;36.40;;;;;;4824020;29;92562;-73
2022/08/26 08:45:19;;;;;;;5.35;4.70;;;45.90;35.90;;;;;;4816113;29;91827;-73
2022/08/26 08:47:54;;;;;;;8.68;6.20;;;45.40;36.10;;;;;;4821879;29;91780;-73
2022/08/26 08:50:51;;;;;;;8.77;5.43;;;46.70;35.40;;;;;;4823814;29;91729;-72
2022/08/26 08:53:40;;;;;;;6.30;5.70;;;46.00;36.60;;;;;;4821346;29;92223;-74
2022/08/26 08:56:32;;;;;;;6.00;5.47;;;46.80;35.30;;;;;;4820210;29;91373;-72
2022/08/26 08:59:20;;;;;;;7.53;6.90;;;47.10;34.80;;;;;;4816613;29;92432;-72
2022/08/26 09:02:00;;;;;;;7.25;6.63;;;46.70;34.30;;;;;;4822148;29;92532;-72
2022/08/26 09:04:56;;;;;;;8.35;7.55;;;46.10;35.60;;;;;;4821182;29;92898;-73
2022/08/26 09:07:30;;;;;;;8.10;7.25;;;45.50;35.90;;;;;;4823831;29;91445;-74
2022/08/26 09:09:58;;;;;;;8.38;6.88;;;46.60;35.00;;;;;;4826214;29;91789;-73
2022/08/26 09:12:29;;;;;;;8.30;6.97;;;47.50;34.30;;;;;;4824577;29;92432;-72
2022/08/26 09:15:21;;;;;;;7.57;6.20;;;46.70;34.70;;;;;;4814454;29;92013;-72
2022/08/26 09:17:58;;;;;;;7.93;7.30;;;45.70;35.60;;;;;;4820999;29;91719;-76
2022/08/26 09:20:47;;;;;;;7.63;6.88;;;45.70;35.80;;;;;;4823594;29;91675;-73
2022/08/26 09:23:13;;;;;;;6.55;5.93;;;46.90;34.40;;;;;;4814999;29;93447;-73
2022/08/26 09:25:57;;;;;;;6.35;5.82;;;46.30;34.80;;;;;;4821804;29;91904;-72
2022/08/26 09:28:26;;;;;;;8.38;6.72;;;47.50;33.20;;;;;;4813414;29;92655;-71
2022/08/26 09:31:12;;;;;;;6.93;6.22;;;46.30;33.10;;;;;;4822917;29;91941;-74
2022/08/26 09:33:39;;;;;;;6.75;4.70;;;42.40;35.50;;;;;;4822719;29;93235;-72
2022/08/26 09:36:35;;;;;;;5.93;5.28;;;40.50;39.60;;;;;;4822510;29;92045;-73
2022/08/26 09:39:01;;;;;;;5.82;4.90;;;41.00;39.50;;;;;;4815384;29;91715;-73
2022/08/26 09:41:30;;;;;;;48.17;36.67;;;43.70;36.70;;;;;;4831931;29;92130;-73
2022/08/26 09:44:12;;;;;;;6.65;5.05;;;46.50;33.60;;;;;;4821575;29;91689;-74
2022/08/26 09:46:58;;;;;;;12.15;7.10;;;47.80;31.70;;;;;;4822426;29;92100;-73
2022/08/26 09:49:23;;;;;;;8.15;5.82;;;48.80;31.60;;;;;;4821661;29;91288;-74
2022/08/26 09:52:07;;;;;;;7.38;6.03;;;48.50;31.90;;;;;;4823049;29;91967;-73
2022/08/26 09:54:33;;;;;;;9.30;6.43;;;48.70;32.20;;;;;;4821807;29;93248;-74
2022/08/26 09:57:29;;;;;;;12.43;7.60;;;48.50;31.50;;;;;;4822108;29;92201;-72
2022/08/26 09:59:55;;;;;;;6.88;6.10;;;47.00;32.60;;;;;;4822395;29;91801;-72
2022/08/26 10:02:33;;;;;;;8.05;6.97;;;46.00;33.00;;;;;;4821622;29;92599;-73
2022/08/26 10:05:05;;;;;;;8.55;6.72;;;45.40;33.30;;;;;;4821477;29;92155;-74
2022/08/26 10:07:48;;;;;;;8.02;6.47;;;46.50;32.50;;;;;;4822449;29;91221;-73
2022/08/26 10:10:20;;;;;;;7.28;6.68;;;45.90;32.50;;;;;;4820869;29;91732;-74
2022/08/26 10:12:53;;;;;;;6.30;5.70;;;45.80;32.60;;;;;;4822481;29;90625;-75
2022/08/26 10:15:21;;;;;;;8.65;6.70;;;47.30;32.70;;;;;;4829374;29;92731;-72
2022/08/26 10:18:15;;;;;;;6.25;5.65;;;47.30;30.90;;;;;;4817104;29;92146;-74
2022/08/26 10:20:52;;;;;;;7.85;5.47;;;46.40;30.50;;;;;;4821232;29;92933;-72
2022/08/26 10:23:22;;;;;;;6.50;5.90;;;44.30;32.20;;;;;;4819860;29;91868;-73
2022/08/26 10:25:56;;;;;;;5.53;4.95;;;41.60;33.70;;;;;;4819668;29;92279;-73
2022/08/26 10:28:37;;;;;;;3.97;3.58;;;38.80;36.20;;;;;;4821484;29;92009;-72
2022/08/26 10:31:38;;;;;;;3.83;3.38;;;36.70;38.50;;;;;;4821970;29;91437;-72
2022/08/26 10:34:04;;;;;;;6.82;3.80;;;35.50;42.00;;;;;;4818700;29;91780;-76
2022/08/26 10:36:49;;;;;;;4.43;3.80;;;35.10;42.90;;;;;;4819634;29;91430;-71
2022/08/26 10:39:28;;;;;;;5.18;3.97;;;33.80;46.20;;;;;;4818459;29;92021;-75
2022/08/26 10:42:00;;;;;;;3.50;3.20;;;33.30;47.40;;;;;;4822107;29;91780;-75
2022/08/26 10:44:29;;;;;;;6.55;4.03;;;32.80;46.40;;;;;;4821672;29;91304;-75
2022/08/26 10:47:08;;;;;;;3.25;2.83;;;32.30;49.10;;;;;;4820789;29;96017;-74
2022/08/26 10:49:34;;;;;;;4.57;3.08;;;32.10;49.00;;;;;;4820134;29;92896;-75
2022/08/26 10:52:17;;;;;;;6.10;2.92;;;32.10;46.90;;;;;;4821286;29;92555;-75
2022/08/26 10:54:58;;;;;;;5.65;2.58;;;32.00;46.60;;;;;;4822447;29;91812;-74
2022/08/26 10:57:42;;;;;;;4.18;2.50;;;31.60;48.40;;;;;;4822110;29;92834;-74
2022/08/26 11:03:29;;;;;;;3.17;2.63;;;31.40;49.30;;;;;;4813451;29;91796;-75
2022/08/26 11:06:17;;;;;;;4.22;2.83;;;31.30;49.20;;;;;;4811350;29;91078;-76
2022/08/26 11:08:53;;;;;;;3.58;2.75;;;30.90;51.00;;;;;;4816756;29;92542;-74
2022/08/26 11:11:41;;;;;;;6.25;2.85;;;30.50;50.30;;;;;;4817045;29;92426;-75
2022/08/26 11:14:06;;;;;;;4.20;2.33;;;30.40;51.00;;;;;;4816274;29;92619;-75
2022/08/26 11:16:37;;;;;;;7.38;3.03;;;30.30;53.10;;;;;;4819118;29;91741;-79
2022/08/26 11:19:03;;;;;;;3.70;2.70;;;30.00;53.70;;;;;;4820080;29;92280;-74
2022/08/26 11:22:17;;;;;;;4.45;2.63;;;29.80;54.30;;;;;;4819493;29;92209;-74
2022/08/26 11:24:45;;;;;;;4.85;2.45;;;30.10;52.20;;;;;;4762922;29;91526;-76
2022/08/26 11:27:34;;;;;;;3.42;2.85;;;30.30;52.10;;;;;;4808894;29;91988;-73
2022/08/26 11:30:07;;;;;;;4.45;3.08;;;30.20;52.50;;;;;;4809035;29;92020;-75
2022/08/26 11:32:32;;;;;;;5.35;2.83;;;30.20;52.30;;;;;;4818863;29;92023;-77
2022/08/26 11:35:23;;;;;;;3.03;2.60;;;30.40;53.30;;;;;;4815591;29;91836;-75
2022/08/26 11:38:11;;;;;;;8.15;3.17;;;30.10;54.30;;;;;;4816430;29;91392;-78
2022/08/26 11:40:39;;;;;;;3.70;2.80;;;30.10;51.90;;;;;;4820316;29;93199;-76
2022/08/26 11:43:12;;;;;;;5.35;3.10;;;30.00;52.20;;;;;;4818624;29;92587;-75
2022/08/26 11:46:00;;;;;;;5.22;2.70;;;30.00;53.20;;;;;;4810528;29;92375;-75
2022/08/26 11:48:27;;;;;;;5.00;3.00;;;29.90;54.10;;;;;;4817232;29;91504;-75
2022/08/26 11:50:59;;;;;;;7.40;3.42;;;29.90;52.90;;;;;;4817225;29;91646;-74
2022/08/26 11:53:26;;;;;;;7.38;2.45;;;30.00;52.70;;;;;;4815215;29;93528;-74
2022/08/26 11:55:54;;;;;;;6.78;3.00;;;29.80;52.90;;;;;;4820118;29;91400;-76
2022/08/26 11:58:22;;;;;;;10.40;3.17;;;29.70;52.70;;;;;;4820160;29;90911;-72
2022/08/26 12:00:59;;;;;;;6.25;2.42;;;29.30;53.60;;;;;;4818443;29;91828;-74
2022/08/26 12:03:40;;;;;;;5.13;2.83;;;28.80;54.40;;;;;;4819968;29;92472;-75
2022/08/26 12:06:21;;;;;;;5.22;2.65;;;29.20;56.70;;;;;;4825205;29;92579;-75
2022/08/26 12:08:48;;;;;;;4.10;2.60;;;29.10;53.70;;;;;;4816735;29;93097;-74
2022/08/26 12:11:22;;;;;;;4.28;2.53;;;29.10;53.90;;;;;;4818003;29;91736;-73
2022/08/26 12:13:56;;;;;;;8.85;3.20;;;29.10;53.70;;;;;;4821316;29;91450;-73
2022/08/26 12:16:25;;;;;;;4.85;2.42;;;28.90;54.10;;;;;;4815930;29;91929;-75
2022/08/26 12:18:51;;;;;;;3.83;2.17;;;28.90;55.60;;;;;;4818114;29;91709;-75
2022/08/26 12:21:24;;;;;;;3.88;2.10;;;29.20;56.70;;;;;;4817250;29;92856;-78
2022/08/26 12:23:53;;;;;;;4.65;3.17;;;29.40;54.00;;;;;;4816900;29;92155;-75
2022/08/26 12:26:28;;;;;;;4.72;2.80;;;29.30;55.50;;;;;;4818837;29;91858;-74
2022/08/26 12:29:03;;;;;;;4.90;2.63;;;29.30;55.40;;;;;;4824171;29;91701;-73
2022/08/26 12:31:34;;;;;;;6.55;3.13;;;29.30;55.70;;;;;;4824397;29;93176;-76
2022/08/26 12:34:03;;;;;;;5.47;3.15;;;29.50;54.60;;;;;;4823773;29;92338;-75
2022/08/26 12:36:46;;;;;;;4.63;2.75;;;29.50;54.50;;;;;;4824824;29;91399;-79
2022/08/26 12:39:28;;;;;;;5.18;3.15;;;29.40;56.30;;;;;;4824093;29;92087;-75
2022/08/26 12:41:55;;;;;;;5.25;3.45;;;29.30;56.00;;;;;;4824312;29;92757;-73
2022/08/26 12:45:00;;;;;;;4.45;2.47;;;29.30;55.80;;;;;;4821485;29;91909;-73
2022/08/26 12:47:38;;;;;;;4.28;2.80;;;29.20;57.30;;;;;;4821291;29;91384;-76
2022/08/26 12:50:16;;;;;;;5.10;2.80;;;29.20;57.60;;;;;;4822694;29;90548;-72
2022/08/26 12:52:56;;;;;;;7.97;3.40;;;29.30;57.50;;;;;;4823097;29;92479;-76
2022/08/26 12:55:24;;;;;;;7.38;3.97;;;29.30;56.60;;;;;;4823163;29;92078;-73
2022/08/26 12:58:08;;;;;;;6.35;3.63;;;29.30;58.40;;;;;;4823317;29;92774;-76
2022/08/26 13:00:36;;;;;;;7.18;3.92;;;29.50;59.30;;;;;;4824126;29;91317;-76
2022/08/26 13:03:02;;;;;;;;;;;29.70;58.50;;;;;;4823521;29;92489;-72
2022/08/26 13:05:37;;;;;;;5.47;4.00;;;29.50;60.20;;;;;;4824822;29;92053;-73
2022/08/26 13:08:24;;;;;;;9.43;4.38;;;29.80;58.00;;;;;;4817498;29;92046;-74
2022/08/26 13:11:03;;;;;;;10.38;3.28;;;30.00;56.60;;;;;;4822870;29;91378;-74
2022/08/26 13:13:29;;;;;;;5.40;3.88;;;30.10;56.60;;;;;;4820595;29;91645;-74
2022/08/26 13:15:55;;;;;;;9.02;4.50;;;30.10;57.10;;;;;;4820954;29;91995;-74
2022/08/26 13:18:20;;;;;;;11.00;5.07;;;30.10;57.10;;;;;;4820584;29;91385;-74
2022/08/26 13:20:46;;;;;;;9.20;4.28;;;30.30;56.30;;;;;;4822733;29;91805;-74
2022/08/26 13:23:13;;;;;;;7.78;4.43;;;30.30;56.30;;;;;;4820462;29;92736;-76
2022/08/26 13:25:38;;;;;;;9.25;3.60;;;30.00;58.10;;;;;;4823641;29;92125;-76
2022/08/26 13:28:04;;;;;;;5.25;3.72;;;29.90;57.60;;;;;;4820014;29;91947;-74
2022/08/26 13:30:30;;;;;;;5.85;3.28;;;29.80;59.30;;;;;;4820794;29;91260;-73
2022/08/26 13:32:59;;;;;;;7.18;3.20;;;30.00;59.50;;;;;;4812239;29;92994;-74
2022/08/26 13:35:25;;;;;;;8.25;3.78;;;30.00;57.00;;;;;;4822721;29;92250;-74
2022/08/26 13:37:51;;;;;;;5.30;2.83;;;29.70;57.40;;;;;;4820881;29;93368;-72
2022/08/26 13:40:17;;;;;;;7.68;4.10;;;29.60;59.20;;;;;;4821001;29;91115;-78
2022/08/26 13:42:43;;;;;;;6.75;2.80;;;29.70;58.70;;;;;;4822667;29;92281;-73
2022/08/26 13:45:09;;;;;;;5.95;3.47;;;29.50;59.50;;;;;;4821857;29;92432;-73
2022/08/26 13:47:36;;;;;;;6.97;3.53;;;29.40;58.50;;;;;;4820360;29;92332;-74
2022/08/26 13:50:02;;;;;;;8.23;3.92;;;29.50;57.80;;;;;;4821913;29;91983;-73
2022/08/26 13:52:28;;;;;;;6.57;2.83;;;29.50;56.90;;;;;;4820695;29;93563;-74
2022/08/26 13:54:54;;;;;;;3.67;2.70;;;29.60;57.00;;;;;;4820238;29;92361;-77
2022/08/26 13:57:23;;;;;;;7.22;3.30;;;29.50;56.00;;;;;;4821780;29;92293;-73
2022/08/26 13:59:50;;;;;;;6.18;2.40;;;29.30;56.80;;;;;;4819436;29;91429;-73
2022/08/26 14:02:16;;;;;;;4.00;2.85;;;29.30;58.50;;;;;;4820923;29;91647;-74
2022/08/26 14:04:42;;;;;;;5.65;2.70;;;29.20;57.40;;;;;;4821344;29;91506;-73
2022/08/26 14:07:07;;;;;;;7.25;2.60;;;29.10;56.90;;;;;;4821830;29;91811;-73
2022/08/26 14:09:33;;;;;;;6.00;2.58;;;29.20;58.50;;;;;;4819660;29;92640;-76
2022/08/26 14:11:59;;;;;;;5.65;2.65;;;29.20;57.30;;;;;;4817549;29;93235;-75
2022/08/26 14:14:26;;;;;;;5.05;3.03;;;29.10;58.80;;;;;;4823183;29;93176;-74
2022/08/26 14:16:52;;;;;;;6.22;2.83;;;29.10;58.30;;;;;;4821408;29;92131;-73
2022/08/26 14:19:19;;;;;;;5.97;2.92;;;29.30;57.20;;;;;;4821828;29;91363;-71
2022/08/26 14:21:45;;;;;;;6.88;2.55;;;29.20;56.30;;;;;;4825683;29;92041;-73
2022/08/26 14:24:11;;;;;;;4.45;3.08;;;29.20;56.20;;;;;;4822539;29;91289;-73
2022/08/26 14:26:36;;;;;;;3.90;2.75;;;29.30;55.70;;;;;;4819832;29;91559;-77
2022/08/26 14:29:04;;;;;;;5.55;2.42;;;29.30;55.20;;;;;;4824547;29;90821;-74
2022/08/26 14:31:31;;;;;;;6.57;2.40;;;29.40;56.50;;;;;;4822241;29;92254;-72
2022/08/26 14:34:01;;;;;;;3.40;2.65;;;29.40;54.60;;;;;;4823314;29;92487;-73
2022/08/26 14:36:27;;;;;;;4.97;2.22;;;29.40;53.90;;;;;;4822806;29;92447;-74
2022/08/26 14:38:54;;;;;;;3.25;1.67;;;29.60;53.00;;;;;;4823125;29;91757;-73
2022/08/26 14:41:21;;;;;;;5.85;1.83;;;29.60;51.90;;;;;;4818418;29;92292;-72
2022/08/26 14:44:09;;;;;;;3.95;2.17;;;29.60;52.60;;;;;;4819829;29;92338;-74
2022/08/26 14:46:41;;;;;;;;;;;29.50;52.10;;;;;;4817074;29;92016;-74
2022/08/26 14:49:07;;;;;;;3.78;1.95;;;29.40;51.30;;;;;;4821435;29;91386;-75
2022/08/26 14:51:33;;;;;;;6.45;1.95;;;29.40;52.70;;;;;;4817876;29;91839;-74
2022/08/26 14:54:11;;;;;;;5.18;1.73;;;29.30;53.50;;;;;;4822996;29;91837;-74
2022/08/26 14:56:50;;;;;;;4.38;2.03;;;29.30;53.60;;;;;;4816218;29;91967;-73
2022/08/26 14:59:24;;;;;;;6.95;2.60;;;29.20;55.90;;;;;;4822775;29;91913;-73
2022/08/26 15:01:50;;;;;;;4.95;1.95;;;28.90;55.30;;;;;;4822424;29;93010;-72
2022/08/26 15:04:17;;;;;;;3.70;1.92;;;28.90;54.40;;;;;;4822032;29;92992;-75
2022/08/26 15:06:43;;;;;;;3.63;2.20;;;29.10;54.30;;;;;;4823375;29;91766;-73
2022/08/26 15:09:09;;;;;;;3.53;1.83;;;29.10;53.70;;;;;;4823163;29;92244;-72
2022/08/26 15:11:35;;;;;;;3.95;2.03;;;29.10;55.20;;;;;;4821928;29;92300;-75
2022/08/26 15:14:01;;;;;;;3.53;1.98;;;29.00;55.50;;;;;;4821778;29;91976;-77
2022/08/26 15:16:27;;;;;;;2.65;1.88;;;28.90;54.70;;;;;;4823095;29;91647;-73
2022/08/26 15:18:54;;;;;;;3.08;1.55;;;28.90;55.40;;;;;;4822888;29;90701;-76
2022/08/26 15:21:20;;;;;;;3.65;2.13;;;29.10;54.70;;;;;;4823165;29;92305;-73
2022/08/26 15:23:48;;;;;;;4.60;2.13;;;29.20;54.80;;;;;;4821523;29;92203;-73
2022/08/26 15:26:15;;;;;;;4.70;2.38;;;29.20;54.50;;;;;;4824207;29;92656;-72
2022/08/26 15:28:41;;;;;;;4.35;2.20;;;29.00;53.50;;;;;;4830441;29;91907;-79
2022/08/26 15:31:08;;;;;;;6.22;2.40;;;29.10;53.00;;;;;;4821477;29;92365;-73
2022/08/26 15:33:34;;;;;;;3.55;1.65;;;28.90;53.50;;;;;;4822810;29;91984;-74
2022/08/26 15:36:02;;;;;;;3.83;2.30;;;28.80;54.90;;;;;;4821693;29;91340;-73
2022/08/26 15:38:29;;;;;;;6.63;2.25;;;28.90;53.60;;;;;;4828506;29;91987;-73
2022/08/26 15:40:56;;;;;;;7.18;2.38;;;29.00;53.20;;;;;;4822271;29;92150;-72
2022/08/26 15:43:23;;;;;;;3.83;2.30;;;28.80;54.50;;;;;;4822475;29;91375;-75
2022/08/26 15:45:48;;;;;;;3.38;2.05;;;28.90;53.20;;;;;;4822562;29;91824;-74
2022/08/26 15:48:14;;;;;;;4.03;2.03;;;28.70;53.00;;;;;;4820465;29;92446;-74
2022/08/26 15:50:53;;;;;;;4.70;1.88;;;28.60;54.00;;;;;;4821064;29;93518;-72
2022/08/26 15:53:20;;;;;;;3.05;1.90;;;28.40;54.70;;;;;;4820788;29;94313;-75
2022/08/26 15:55:47;;;;;;;3.20;1.88;;;28.60;53.90;;;;;;4827095;29;91859;-75
2022/08/26 15:58:13;;;;;;;4.47;2.10;;;28.70;54.60;;;;;;4814593;29;91624;-75
2022/08/26 16:00:40;;;;;;;4.28;2.30;;;28.80;54.10;;;;;;4819807;29;92130;-72